INFORMACIÓN METAR y TAF
METAR FOR LELL
ADDS - METARS form results

(1029 UTC 05 December 2022)
Data provider http://aviationweather.gov/metar/data/
 
METAR text: LELL 051000Z 00000KT CAVOK 09/01 Q1019
Conditions at: LELL (SABADELL , ES) observed 1000 UTC 05 December 2022
Temperature: 9.0°C (48°F)
Dewpoint: 1.0°C (34°F) [RH = 57%]
Pressure (altimeter): 30.09 inches Hg (1019.0 mb)
Winds: calm
Visibility: 6 or more miles (10+ km)
Ceiling: ceiling and visibility are OK
Clouds: unknown
Weather: no significant weather observed at this time

METAR text: LELL 050930Z VRB01KT CAVOK 07/01 Q1019
Conditions at: LELL (SABADELL , ES) observed 0930 UTC 05 December 2022
Temperature: 7.0°C (45°F)
Dewpoint: 1.0°C (34°F) [RH = 66%]
Pressure (altimeter): 30.09 inches Hg (1019.0 mb)
Winds: variable direction winds at 1 MPH (1 knots; 0.5 m/s)
Visibility: 6 or more miles (10+ km)
Ceiling: ceiling and visibility are OK
Clouds: unknown
Weather: no significant weather observed at this time

Forecast for: LELL (SABADELL , ES)
Text: TAF LELL 050800Z 0509/0609 VRB03KT 9999 FEW030 TX16/0513Z TN04/0606Z
Forecast period: 0900 UTC 05 December 2022 to 0900 UTC 06 December 2022
Forecast type: FROM: standard forecast or significant change
Winds: variable direction winds at 3 MPH (3 knots; 1.5 m/s)
Visibility: 6 or more miles (10+ km)
Ceiling: at least 12,000 feet AGL
Clouds: few clouds at 3000 feet AGL
Weather: no significant weather forecast for this period
Text: TEMPO 0512/0518 12010KT
Forecast period: 1200 to 1800 UTC 05 December 2022
Forecast type: TEMPORARY: The following changes expected for less than half the time period
Winds: from the ESE (120 degrees) at 12 MPH (10 knots; 5.1 m/s)
Visibility: missing
Ceiling: unknown
Clouds: missing
Weather: no significant weather forecast for this period

 MAPA DE AEROPUERTO

 INFORMACIÓN DE PISTA
Pista 13 Longitud 2953 ft Ancho 0 ft
Elevación 485 ft Umbral desplazado 0 ft Rumbo de pista 0
Pista 31 Longitud 2953 ft Ancho 0 ft
Elevación 445 ft Umbral desplazado 0 ft Rumbo de pista 0

 FRECUANCIAS DEL AEROPUERTO

 RADIO AYUDAS DEL AEROPUERTO
Tipo NDB Nombre Sabadell Frecuencia 367 KHZ



Powered by Virtual Airlines Manager [v2.6.2]